香港 の空港の天気 - METARとTAF

香港国際空港 ( VHHH / HKG ) - 香港 赤リョウ角
飛行場実況気象(Metar)
観測時間09/26 20:30 HKT (09/26 12:30 UTC)
風向・風速北東 2m/s
視程10km以上
天気現象
少しの雲 雲底高度 760m
気温30℃
湿度70%
気圧1010hPa
METARVHHH 261230Z 05003KT 020V110 9999 FEW025 30/24 Q1010 NOSIG
過去の天気等 Google飛行場航空写真 Wunderground天気予報

過去48時間のMETAR

飛行場予報(TAF)
発表時間: 9/26 19:00 HKT (9/26 11:00 UTC)
予報対象時間: 26日20時 HKT ~ 28日2時 HKT
風向・風速不定 3m/s
視程9,000m
少しの雲 雲底高度 610m
26日20時 HKT ~ 27日2時 HKT に一時的に
風向・風速東南東 5m/s
27日10時 HKT ~ 27日12時 HKT に徐々に
風向・風速西 5m/s
27日17時 HKT ~ 27日19時 HKT に徐々に
風向・風速不定 3m/s
TAF VHHH 261100Z 2612/2718 VRB05KT 9000 FEW020 TX34/2707Z TN28/2622Z
TEMPO 2612/2618 12010KT
BECMG 2702/2704 28010KT
BECMG 2709/2711 VRB05KT